Buena Vista Township, New Jersey
Current Conditions -  °F | °C
As of 1:54 PM on Saturday 25 Oct 2014 (Local Time) from KMIV Reporting Station
Clear Clear  
Wind Chill: 67°   Ceiling: Unl
Heat Index: 67°   Visibility: 10mi
Dew Point: 43°   Wind: 13mph
Humidity: 42%   Direction: 270°W
Pressure: 29.8"   Gusts: 16mph
Location:  39.531°N, 74.8918°W
Report Text: KMIV 251754Z AUTO 27011G14KT 10SM CLR 19/06 A2980 RMK AO2 SLP088 T01940061 10194 20039 58038
Loading
Personal Weather Stations






























Interactive Weather Map
Tropical Storm Tracking
New forecast layout! Learn more

10-Day Weather Forecast

Advertisements
Track Severe Weather on mobile